Time;durP1;ratioP1;P1;durP2;ratioP2;P2;SDS_P1;SDS_P2;PMS_P1;PMS_P2;Temp;Humidity;BMP_temperature;BMP_pressure;BME280_temperature;BME280_humidity;BME280_pressure;Samples;Min_cycle;Max_cycle;Signal;HPM_P1;HPM_P2
2021/10/25 00:00:29;;;;;;;14.75;8.32;;;;;;;;;;4975309;28;20069;-66
2021/10/25 00:02:58;;;;;;;13.80;8.13;;;;;;;;;;4975019;28;20066;-66
2021/10/25 00:05:25;;;;;;;9.43;6.05;;;;;;;;;;4984028;28;20096;-66
2021/10/25 00:07:51;;;;;;;15.15;8.50;;;;;;;;;;4963701;28;20046;-66
2021/10/25 00:10:17;;;;;;;13.73;7.57;;;;;;;;;;4978086;28;20057;-66
2021/10/25 00:12:44;;;;;;;10.18;6.45;;;;;;;;;;4977223;28;20054;-66
2021/10/25 00:15:11;;;;;;;14.15;8.07;;;;;;;;;;4970122;28;20349;-66
2021/10/25 00:17:37;;;;;;;14.55;8.00;;;;;;;;;;4980494;28;20051;-67
2021/10/25 00:20:04;;;;;;;12.63;8.15;;;;;;;;;;4966906;28;20062;-66
2021/10/25 00:22:30;;;;;;;10.32;6.90;;;;;;;;;;4973259;28;20053;-67
2021/10/25 00:24:57;;;;;;;13.23;7.57;;;;;;;;;;4975066;28;20058;-66
2021/10/25 00:27:23;;;;;;;11.07;7.88;;;;;;;;;;4986721;28;20544;-66
2021/10/25 00:29:50;;;;;;;18.52;9.10;;;;;;;;;;4981411;28;20134;-66
2021/10/25 00:32:16;;;;;;;15.43;8.50;;;;;;;;;;4977323;28;20581;-67
2021/10/25 00:34:42;;;;;;;16.88;9.20;;;;;;;;;;4975901;28;20051;-66
2021/10/25 00:37:09;;;;;;;13.43;8.10;;;;;;;;;;4977869;28;20046;-66
2021/10/25 00:39:35;;;;;;;12.82;8.15;;;;;;;;;;4978526;28;20046;-66
2021/10/25 00:42:02;;;;;;;13.00;7.38;;;;;;;;;;4972872;28;20047;-66
2021/10/25 00:44:29;;;;;;;11.70;7.70;;;;;;;;;;4972531;28;20074;-66
2021/10/25 00:46:56;;;;;;;18.05;8.68;;;;;;;;;;4976901;28;20042;-66
2021/10/25 00:49:23;;;;;;;16.65;8.02;;;;;;;;;;4967176;28;20066;-66
2021/10/25 00:51:50;;;;;;;13.88;8.32;;;;;;;;;;4973517;28;20050;-66
2021/10/25 00:54:17;;;;;;;12.55;7.40;;;;;;;;;;4969757;28;20050;-66
2021/10/25 00:56:45;;;;;;;13.35;7.75;;;;;;;;;;4971648;28;20042;-66
2021/10/25 00:59:11;;;;;;;14.63;7.67;;;;;;;;;;4978940;28;20061;-67
2021/10/25 01:01:38;;;;;;;16.98;8.10;;;;;;;;;;4973140;28;20568;-66
2021/10/25 01:04:05;;;;;;;16.98;7.65;;;;;;;;;;4967519;28;20117;-66
2021/10/25 01:06:31;;;;;;;12.95;8.85;;;;;;;;;;4983230;28;20076;-66
2021/10/25 01:08:58;;;;;;;13.32;7.90;;;;;;;;;;4970316;28;20061;-66
2021/10/25 01:11:25;;;;;;;12.80;7.82;;;;;;;;;;4974779;28;20053;-66
2021/10/25 01:13:51;;;;;;;15.02;8.23;;;;;;;;;;4974898;28;20046;-66
2021/10/25 01:16:18;;;;;;;12.57;7.30;;;;;;;;;;4964719;28;20791;-66
2021/10/25 01:18:45;;;;;;;13.80;8.57;;;;;;;;;;4975965;28;20046;-66
2021/10/25 01:21:12;;;;;;;20.10;8.35;;;;;;;;;;4977617;28;20077;-66
2021/10/25 01:23:38;;;;;;;18.50;8.50;;;;;;;;;;4968149;28;20085;-66
2021/10/25 01:26:05;;;;;;;13.15;7.88;;;;;;;;;;4982849;28;20494;-66
2021/10/25 01:28:31;;;;;;;13.32;7.80;;;;;;;;;;4965104;28;20042;-66
2021/10/25 01:30:58;;;;;;;13.52;7.85;;;;;;;;;;4968587;28;20054;-66
2021/10/25 01:33:27;;;;;;;11.73;7.65;;;;;;;;;;4971784;28;20054;-66
2021/10/25 01:35:54;;;;;;;14.05;7.78;;;;;;;;;;4995088;28;20049;-66
2021/10/25 01:38:20;;;;;;;19.15;9.20;;;;;;;;;;4981392;28;20042;-66
2021/10/25 01:40:46;;;;;;;17.77;8.23;;;;;;;;;;4975007;28;20400;-66
2021/10/25 01:43:13;;;;;;;14.27;7.53;;;;;;;;;;4976931;28;20443;-66
2021/10/25 01:45:39;;;;;;;16.42;8.55;;;;;;;;;;4968746;28;20042;-66
2021/10/25 01:48:05;;;;;;;17.60;7.22;;;;;;;;;;4986029;28;20050;-66
2021/10/25 01:50:32;;;;;;;16.38;7.57;;;;;;;;;;4970676;28;20038;-66
2021/10/25 01:53:00;;;;;;;12.60;8.25;;;;;;;;;;4980736;28;20480;-66
2021/10/25 01:55:27;;;;;;;12.73;7.65;;;;;;;;;;4977427;28;20039;-66
2021/10/25 01:57:53;;;;;;;14.05;8.50;;;;;;;;;;4971342;28;20054;-66
2021/10/25 02:00:19;;;;;;;17.25;7.63;;;;;;;;;;4978153;28;20057;-66
2021/10/25 02:02:46;;;;;;;14.15;7.35;;;;;;;;;;4976308;28;20054;-66
2021/10/25 02:05:12;;;;;;;12.82;6.40;;;;;;;;;;4976327;28;20113;-66
2021/10/25 02:07:39;;;;;;;10.63;6.13;;;;;;;;;;4967371;28;20137;-66
2021/10/25 02:10:05;;;;;;;13.48;7.50;;;;;;;;;;4979152;28;20052;-66
2021/10/25 02:12:32;;;;;;;13.00;7.68;;;;;;;;;;4969035;28;20050;-66
2021/10/25 02:14:58;;;;;;;13.73;7.40;;;;;;;;;;4971392;28;20077;-66
2021/10/25 02:17:25;;;;;;;12.73;7.35;;;;;;;;;;4986763;28;20478;-66
2021/10/25 02:19:51;;;;;;;13.95;8.13;;;;;;;;;;4974264;28;20050;-67
2021/10/25 02:22:17;;;;;;;13.43;7.60;;;;;;;;;;4984960;28;20046;-66
2021/10/25 02:24:44;;;;;;;14.02;8.15;;;;;;;;;;4979866;28;20050;-66
2021/10/25 02:27:11;;;;;;;13.20;7.70;;;;;;;;;;4988758;28;20046;-66
2021/10/25 02:29:38;;;;;;;13.43;7.50;;;;;;;;;;4993771;28;20084;-66
2021/10/25 02:32:05;;;;;;;13.27;7.90;;;;;;;;;;4986107;28;20181;-66
2021/10/25 02:34:32;;;;;;;13.18;7.90;;;;;;;;;;4985644;28;20084;-66
2021/10/25 02:36:58;;;;;;;14.35;8.30;;;;;;;;;;4992825;28;20051;-66
2021/10/25 02:39:25;;;;;;;13.02;7.68;;;;;;;;;;4972996;28;20062;-66
2021/10/25 02:41:51;;;;;;;19.50;7.78;;;;;;;;;;4970587;28;20061;-67
2021/10/25 02:44:17;;;;;;;13.50;7.55;;;;;;;;;;4984110;28;20292;-66
2021/10/25 02:46:44;;;;;;;12.82;7.47;;;;;;;;;;4986608;28;20498;-66
2021/10/25 02:49:10;;;;;;;15.02;8.27;;;;;;;;;;4981586;28;20058;-66
2021/10/25 02:51:36;;;;;;;12.70;6.57;;;;;;;;;;4991302;28;20054;-66
2021/10/25 02:54:03;;;;;;;12.63;6.97;;;;;;;;;;4971261;28;20058;-67
2021/10/25 02:56:29;;;;;;;12.27;7.03;;;;;;;;;;4987140;28;20046;-66
2021/10/25 02:58:56;;;;;;;13.95;8.02;;;;;;;;;;4988493;28;20147;-66
2021/10/25 03:01:23;;;;;;;13.93;7.68;;;;;;;;;;4981479;28;20046;-66
2021/10/25 03:03:49;;;;;;;11.65;7.38;;;;;;;;;;4988976;28;20483;-66
2021/10/25 03:06:17;;;;;;;11.38;7.45;;;;;;;;;;4980860;28;20038;-66
2021/10/25 03:08:43;;;;;;;12.25;7.70;;;;;;;;;;4979429;28;20130;-66
2021/10/25 03:11:09;;;;;;;12.32;7.47;;;;;;;;;;4982792;28;20057;-66
2021/10/25 03:13:36;;;;;;;12.93;7.45;;;;;;;;;;4993186;28;20050;-66
2021/10/25 03:16:05;;;;;;;9.80;5.97;;;;;;;;;;4975139;28;20046;-66
2021/10/25 03:18:32;;;;;;;12.05;7.20;;;;;;;;;;4980789;28;20542;-66
2021/10/25 03:20:58;;;;;;;13.55;7.35;;;;;;;;;;4982314;28;20542;-66
2021/10/25 03:23:25;;;;;;;10.57;6.43;;;;;;;;;;4979316;28;20050;-66
2021/10/25 03:25:51;;;;;;;13.02;6.90;;;;;;;;;;4992317;28;20058;-67
2021/10/25 03:28:18;;;;;;;12.98;6.85;;;;;;;;;;4967554;28;20051;-66
2021/10/25 03:30:44;;;;;;;15.52;7.22;;;;;;;;;;4978078;28;20046;-66
2021/10/25 03:33:11;;;;;;;13.00;6.82;;;;;;;;;;4968932;28;20050;-66
2021/10/25 03:35:37;;;;;;;13.80;7.38;;;;;;;;;;4992087;28;20050;-66
2021/10/25 03:38:06;;;;;;;12.77;7.03;;;;;;;;;;4990073;28;20130;-66
2021/10/25 03:40:33;;;;;;;14.98;6.88;;;;;;;;;;4983452;28;20539;-66
2021/10/25 03:42:59;;;;;;;12.70;7.03;;;;;;;;;;4978353;28;20504;-66
2021/10/25 03:50:28;;;;;;;13.63;6.97;;;;;;;;;;4972258;28;20600;-66
2021/10/25 04:28:11;;;;;;;11.85;6.45;;;;;;;;;;4978038;28;20046;-66
2021/10/25 04:30:35;;;;;;;12.40;6.90;;;;;;;;;;4972021;28;20492;-66
2021/10/25 04:33:01;;;;;;;16.17;6.72;;;;;;;;;;4983450;28;20057;-67
2021/10/25 04:35:29;;;;;;;13.13;7.18;;;;;;;;;;4979062;28;20066;-66
2021/10/25 04:37:55;;;;;;;11.98;6.40;;;;;;;;;;4977633;28;20049;-66
2021/10/25 04:40:22;;;;;;;12.77;6.63;;;;;;;;;;4987626;28;20403;-66
2021/10/25 04:42:48;;;;;;;12.13;7.15;;;;;;;;;;4967509;28;20043;-66
2021/10/25 04:45:16;;;;;;;9.70;6.43;;;;;;;;;;4981091;28;20047;-66
2021/10/25 04:47:42;;;;;;;11.10;6.93;;;;;;;;;;4975529;28;20072;-66
2021/10/25 04:50:09;;;;;;;12.38;7.05;;;;;;;;;;4978840;28;20055;-66
2021/10/25 04:52:35;;;;;;;15.13;7.28;;;;;;;;;;4976888;28;20050;-66
2021/10/25 04:55:02;;;;;;;10.25;5.93;;;;;;;;;;4973063;28;20150;-66
2021/10/25 04:57:28;;;;;;;10.80;6.30;;;;;;;;;;4973858;28;20050;-66
2021/10/25 04:59:55;;;;;;;14.23;6.65;;;;;;;;;;4971825;28;20065;-66
2021/10/25 05:02:22;;;;;;;13.30;6.20;;;;;;;;;;4983296;28;20057;-66
2021/10/25 05:04:48;;;;;;;10.40;6.57;;;;;;;;;;4977289;28;20054;-66
2021/10/25 05:07:14;;;;;;;11.77;6.10;;;;;;;;;;4988462;28;20061;-66
2021/10/25 05:09:41;;;;;;;12.30;7.05;;;;;;;;;;4979530;28;20039;-66
2021/10/25 05:12:13;;;;;;;13.52;6.70;;;;;;;;;;4971592;28;20058;-66
2021/10/25 05:14:41;;;;;;;13.05;6.60;;;;;;;;;;4986491;28;20054;-66
2021/10/25 05:17:07;;;;;;;10.03;5.80;;;;;;;;;;4971069;28;20042;-66
2021/10/25 05:19:33;;;;;;;11.05;6.47;;;;;;;;;;4981341;28;20049;-66
2021/10/25 05:22:00;;;;;;;13.07;7.05;;;;;;;;;;4979653;28;20488;-66
2021/10/25 05:24:26;;;;;;;9.88;5.97;;;;;;;;;;4977100;28;20046;-66
2021/10/25 05:26:52;;;;;;;10.48;5.65;;;;;;;;;;4985197;28;20502;-66
2021/10/25 05:29:19;;;;;;;10.32;5.53;;;;;;;;;;4982652;28;20545;-67
2021/10/25 05:31:47;;;;;;;12.60;6.07;;;;;;;;;;4982721;28;20046;-66
2021/10/25 05:34:13;;;;;;;12.05;6.20;;;;;;;;;;4976812;28;20646;-66
2021/10/25 05:36:41;;;;;;;10.45;6.25;;;;;;;;;;4973502;28;20488;-66
2021/10/25 05:39:10;;;;;;;10.60;6.50;;;;;;;;;;4963885;28;20046;-66
2021/10/25 05:41:37;;;;;;;10.32;5.40;;;;;;;;;;4977653;28;20050;-66
2021/10/25 05:44:03;;;;;;;12.48;6.18;;;;;;;;;;4973655;28;20050;-66
2021/10/25 05:46:30;;;;;;;10.82;5.72;;;;;;;;;;4978752;28;20054;-66
2021/10/25 05:48:58;;;;;;;13.88;5.90;;;;;;;;;;4987924;28;20117;-66
2021/10/25 05:51:24;;;;;;;9.18;5.80;;;;;;;;;;4969628;28;20065;-66
2021/10/25 05:53:50;;;;;;;9.20;5.85;;;;;;;;;;4975707;28;20062;-66
2021/10/25 05:56:17;;;;;;;11.45;5.90;;;;;;;;;;4973243;28;20046;-66
2021/10/25 05:58:43;;;;;;;9.60;5.82;;;;;;;;;;4979779;28;20414;-66
2021/10/25 06:01:16;;;;;;;11.80;6.75;;;;;;;;;;4981152;28;20120;-66
2021/10/25 06:03:45;;;;;;;10.82;6.43;;;;;;;;;;4982713;28;20750;-66
2021/10/25 06:06:11;;;;;;;10.35;6.28;;;;;;;;;;4975879;28;20053;-66
2021/10/25 06:08:40;;;;;;;15.32;6.60;;;;;;;;;;4967547;28;20055;-66
2021/10/25 06:11:07;;;;;;;12.70;6.63;;;;;;;;;;4989059;28;20043;-66
2021/10/25 06:13:39;;;;;;;9.90;5.75;;;;;;;;;;4974948;28;20406;-66
2021/10/25 06:16:15;;;;;;;12.02;5.78;;;;;;;;;;4977504;28;20101;-67
2021/10/25 06:18:42;;;;;;;12.20;6.50;;;;;;;;;;4973655;28;20479;-66
2021/10/25 06:21:09;;;;;;;10.93;5.63;;;;;;;;;;4970202;28;20069;-67
2021/10/25 06:23:36;;;;;;;8.48;5.40;;;;;;;;;;4978938;28;20064;-66
2021/10/25 06:26:03;;;;;;;11.23;6.23;;;;;;;;;;4988724;28;20100;-66
2021/10/25 06:28:30;;;;;;;14.45;6.30;;;;;;;;;;4981497;28;20717;-66
2021/10/25 06:31:01;;;;;;;13.30;5.97;;;;;;;;;;4977793;28;20066;-66
2021/10/25 06:33:28;;;;;;;14.05;6.43;;;;;;;;;;4981879;28;20081;-67
2021/10/25 06:36:02;;;;;;;10.82;5.97;;;;;;;;;;4964012;28;20878;-66
2021/10/25 06:38:35;;;;;;;16.67;6.28;;;;;;;;;;4977281;28;20058;-66
2021/10/25 06:41:02;;;;;;;9.55;6.03;;;;;;;;;;4988083;28;20045;-66
2021/10/25 06:43:28;;;;;;;13.23;6.07;;;;;;;;;;4972216;28;20580;-66
2021/10/25 06:45:55;;;;;;;11.32;6.13;;;;;;;;;;4980567;28;20502;-66
2021/10/25 06:48:23;;;;;;;11.95;6.90;;;;;;;;;;4963441;28;20081;-67
2021/10/25 06:50:51;;;;;;;16.08;6.22;;;;;;;;;;4973244;28;20039;-67
2021/10/25 06:53:17;;;;;;;11.63;6.00;;;;;;;;;;4978415;28;20046;-66
2021/10/25 06:55:44;;;;;;;11.27;6.20;;;;;;;;;;4973794;28;20051;-66
2021/10/25 06:58:10;;;;;;;11.20;6.43;;;;;;;;;;4979788;28;20050;-66
2021/10/25 07:00:37;;;;;;;11.25;6.38;;;;;;;;;;4973107;28;20066;-66
2021/10/25 07:03:04;;;;;;;8.43;5.82;;;;;;;;;;4980741;28;20042;-66
2021/10/25 07:05:33;;;;;;;10.00;5.53;;;;;;;;;;4974292;28;20176;-67
2021/10/25 07:07:59;;;;;;;13.10;6.57;;;;;;;;;;4985762;28;20058;-67
2021/10/25 07:10:27;;;;;;;12.30;6.82;;;;;;;;;;4980984;28;20050;-67
2021/10/25 07:13:14;;;;;;;11.20;6.67;;;;;;;;;;4983805;28;20047;-67
2021/10/25 07:15:48;;;;;;;10.48;5.53;;;;;;;;;;4978995;28;20043;-66
2021/10/25 07:20:57;;;;;;;12.77;5.40;;;;;;;;;;4983139;28;20047;-66
2021/10/25 08:09:59;;;;;;;11.40;5.70;;;;;;;;;;4975504;28;20055;-66
2021/10/25 08:12:30;;;;;;;;;;;;;;;;;;4983098;28;20056;-67
2021/10/25 08:15:04;;;;;;;9.50;5.93;;;;;;;;;;4975572;28;20373;-67
2021/10/25 08:17:44;;;;;;;9.85;5.80;;;;;;;;;;4981713;28;20054;-66
2021/10/25 08:20:10;;;;;;;12.50;5.47;;;;;;;;;;4978056;28;20054;-66
2021/10/25 08:22:38;;;;;;;17.10;5.80;;;;;;;;;;4985755;28;20077;-66
2021/10/25 08:25:04;;;;;;;10.55;6.05;;;;;;;;;;4964867;28;20042;-66
2021/10/25 08:27:31;;;;;;;12.40;5.80;;;;;;;;;;4989403;28;20046;-66
2021/10/25 08:29:57;;;;;;;10.15;5.40;;;;;;;;;;4976216;28;20042;-66
2021/10/25 08:35:18;;;;;;;;;;;;;;;;;;4982272;28;20070;-66
2021/10/25 08:40:35;;;;;;;11.40;5.22;;;;;;;;;;4977047;28;20065;-66
2021/10/25 08:43:01;;;;;;;10.65;5.38;;;;;;;;;;4977893;28;20050;-66
2021/10/25 08:45:33;;;;;;;11.15;5.85;;;;;;;;;;4979670;28;20053;-66
2021/10/25 08:48:00;;;;;;;11.75;6.38;;;;;;;;;;4969868;28;20137;-66
2021/10/25 08:50:30;;;;;;;13.55;5.80;;;;;;;;;;4979979;28;20050;-66
2021/10/25 08:52:57;;;;;;;12.95;6.32;;;;;;;;;;4959638;28;20054;-66
2021/10/25 08:55:24;;;;;;;13.77;5.95;;;;;;;;;;4979415;28;20046;-66
2021/10/25 08:57:51;;;;;;;12.32;7.00;;;;;;;;;;4986127;28;20054;-66
2021/10/25 09:00:33;;;;;;;9.85;5.60;;;;;;;;;;4980997;28;20062;-66
2021/10/25 09:03:00;;;;;;;10.97;6.33;;;;;;;;;;4975080;28;20043;-66
2021/10/25 09:05:27;;;;;;;13.20;6.18;;;;;;;;;;4970571;28;20414;-66
2021/10/25 09:07:54;;;;;;;9.32;5.53;;;;;;;;;;4983985;28;20553;-66
2021/10/25 09:10:48;;;;;;;10.43;5.75;;;;;;;;;;4970744;28;20058;-66
2021/10/25 09:13:16;;;;;;;10.65;5.80;;;;;;;;;;4981620;28;20042;-66
2021/10/25 09:15:49;;;;;;;13.70;6.18;;;;;;;;;;4984587;28;20046;-66
2021/10/25 09:18:17;;;;;;;10.07;5.93;;;;;;;;;;4984128;28;20133;-66
2021/10/25 09:20:51;;;;;;;8.15;5.38;;;;;;;;;;4978502;28;20063;-66
2021/10/25 09:23:19;;;;;;;11.18;5.57;;;;;;;;;;4969469;28;20069;-66
2021/10/25 09:25:53;;;;;;;10.35;6.07;;;;;;;;;;4985398;28;20068;-67
2021/10/25 09:28:24;;;;;;;10.85;5.93;;;;;;;;;;4981531;28;20066;-66
2021/10/25 09:30:53;;;;;;;11.70;6.13;;;;;;;;;;4972633;28;20062;-66
2021/10/25 09:33:21;;;;;;;16.35;6.20;;;;;;;;;;4968596;28;20133;-66
2021/10/25 09:35:55;;;;;;;9.73;5.80;;;;;;;;;;4980756;28;20050;-66
2021/10/25 09:49:14;;;;;;;11.20;6.50;;;;;;;;;;4975283;28;20050;-66
2021/10/25 09:51:50;;;;;;;10.93;5.63;;;;;;;;;;4969869;28;20061;-66
2021/10/25 09:54:20;;;;;;;11.25;6.03;;;;;;;;;;4956838;28;20047;-66
2021/10/25 09:57:02;;;;;;;11.02;5.88;;;;;;;;;;4970464;28;20058;-67
2021/10/25 09:59:48;;;;;;;13.35;5.93;;;;;;;;;;4970610;28;20141;-67
2021/10/25 10:02:15;;;;;;;13.60;6.75;;;;;;;;;;4974525;28;20396;-66
2021/10/25 10:04:48;;;;;;;13.52;6.72;;;;;;;;;;4986813;28;20085;-66
2021/10/25 10:07:16;;;;;;;9.68;5.05;;;;;;;;;;4973990;28;20042;-66
2021/10/25 10:09:43;;;;;;;11.85;5.93;;;;;;;;;;4981726;28;20057;-67
2021/10/25 10:12:12;;;;;;;10.80;5.80;;;;;;;;;;4983052;28;20047;-67
2021/10/25 10:14:38;;;;;;;11.15;5.70;;;;;;;;;;4963948;28;20693;-66
2021/10/25 10:17:05;;;;;;;13.52;6.10;;;;;;;;;;4983300;28;20043;-66
2021/10/25 10:19:32;;;;;;;10.95;5.47;;;;;;;;;;4969657;28;20054;-67
2021/10/25 10:22:01;;;;;;;12.18;5.97;;;;;;;;;;4977644;28;20460;-67
2021/10/25 10:24:33;;;;;;;10.52;5.65;;;;;;;;;;4976819;28;20391;-66
2021/10/25 10:27:04;;;;;;;10.32;5.85;;;;;;;;;;4991431;28;20054;-66
2021/10/25 10:29:37;;;;;;;13.93;5.88;;;;;;;;;;4966553;28;20050;-67
2021/10/25 10:32:05;;;;;;;10.75;5.45;;;;;;;;;;4978312;28;20420;-67
2021/10/25 10:34:42;;;;;;;9.38;5.07;;;;;;;;;;4976410;28;20038;-68
2021/10/25 10:37:25;;;;;;;9.82;6.28;;;;;;;;;;4973903;28;20046;-69
2021/10/25 10:39:59;;;;;;;10.15;6.05;;;;;;;;;;4973328;28;20403;-69
2021/10/25 10:42:27;;;;;;;9.38;5.32;;;;;;;;;;4980093;28;20039;-70
2021/10/25 10:44:58;;;;;;;12.77;5.78;;;;;;;;;;4984318;28;20039;-69
2021/10/25 10:47:25;;;;;;;9.70;5.43;;;;;;;;;;4978752;28;20373;-69
2021/10/25 10:49:56;;;;;;;10.30;6.22;;;;;;;;;;4991429;28;20050;-69
2021/10/25 10:52:25;;;;;;;12.02;5.90;;;;;;;;;;4978356;28;20589;-69
2021/10/25 10:55:01;;;;;;;8.55;5.72;;;;;;;;;;4970358;28;20464;-69
2021/10/25 11:00:25;;;;;;;10.65;5.78;;;;;;;;;;4967924;28;20106;-70
2021/10/25 11:02:55;;;;;;;10.63;5.13;;;;;;;;;;4982361;28;20065;-69
2021/10/25 11:05:36;;;;;;;11.15;5.93;;;;;;;;;;4979600;28;20500;-69
2021/10/25 11:08:11;;;;;;;9.95;5.63;;;;;;;;;;4973452;28;20090;-69
2021/10/25 11:10:39;;;;;;;9.38;5.10;;;;;;;;;;4971135;28;20852;-69
2021/10/25 11:13:08;;;;;;;10.25;6.10;;;;;;;;;;5001017;28;20050;-69
2021/10/25 11:15:41;;;;;;;10.15;5.55;;;;;;;;;;4973969;28;20138;-69
2021/10/25 11:18:07;;;;;;;10.40;4.95;;;;;;;;;;4980476;28;20071;-69
2021/10/25 11:20:35;;;;;;;9.75;5.78;;;;;;;;;;4974250;28;20046;-69
2021/10/25 11:23:02;;;;;;;8.77;6.03;;;;;;;;;;4946183;28;20055;-69
2021/10/25 11:25:35;;;;;;;9.07;5.47;;;;;;;;;;4981798;28;20050;-70
2021/10/25 11:28:11;;;;;;;10.65;5.75;;;;;;;;;;4988155;28;20080;-69
2021/10/25 11:30:38;;;;;;;7.85;5.20;;;;;;;;;;4984550;28;20065;-69
2021/10/25 11:33:04;;;;;;;10.63;5.90;;;;;;;;;;4977760;28;20816;-70
2021/10/25 11:35:30;;;;;;;8.40;5.57;;;;;;;;;;4983973;28;20046;-69
2021/10/25 11:38:01;;;;;;;11.15;5.50;;;;;;;;;;4982348;28;20054;-70
2021/10/25 11:40:28;;;;;;;11.85;5.68;;;;;;;;;;4977304;28;20039;-70
2021/10/25 11:42:59;;;;;;;13.75;6.43;;;;;;;;;;4974191;28;20503;-69
2021/10/25 11:45:26;;;;;;;9.07;5.68;;;;;;;;;;4977209;28;20050;-69
2021/10/25 11:47:53;;;;;;;9.48;5.95;;;;;;;;;;4977637;28;20053;-69
2021/10/25 11:50:23;;;;;;;8.75;5.63;;;;;;;;;;4968117;28;20054;-69
2021/10/25 11:53:16;;;;;;;12.48;5.95;;;;;;;;;;4977305;28;20410;-69
2021/10/25 11:55:43;;;;;;;10.43;5.57;;;;;;;;;;4976892;28;20124;-69
2021/10/25 11:58:10;;;;;;;9.50;5.47;;;;;;;;;;4987507;28;20057;-69
2021/10/25 12:00:43;;;;;;;7.78;5.50;;;;;;;;;;4979495;28;20042;-69
2021/10/25 12:03:11;;;;;;;10.05;6.05;;;;;;;;;;4971632;28;20453;-69
2021/10/25 12:05:39;;;;;;;10.98;5.82;;;;;;;;;;4974420;28;20047;-69
2021/10/25 12:08:09;;;;;;;9.63;6.13;;;;;;;;;;4973464;28;20056;-69
2021/10/25 12:10:36;;;;;;;9.80;6.53;;;;;;;;;;4981790;28;20535;-69
2021/10/25 12:13:03;;;;;;;15.23;7.13;;;;;;;;;;4992819;28;20054;-69
2021/10/25 12:15:31;;;;;;;9.73;6.45;;;;;;;;;;4975984;28;20042;-69
2021/10/25 12:17:59;;;;;;;10.85;6.03;;;;;;;;;;4980000;28;20455;-69
2021/10/25 12:20:32;;;;;;;10.70;7.00;;;;;;;;;;4968650;28;20465;-69
2021/10/25 12:23:19;;;;;;;10.95;5.65;;;;;;;;;;4983719;28;20102;-69
2021/10/25 12:26:05;;;;;;;9.82;5.80;;;;;;;;;;4976671;28;20047;-70
2021/10/25 12:28:35;;;;;;;9.70;6.22;;;;;;;;;;4992354;28;20042;-69
2021/10/25 12:31:07;;;;;;;10.95;6.63;;;;;;;;;;4964093;28;20397;-69
2021/10/25 12:33:38;;;;;;;10.25;6.22;;;;;;;;;;4969879;28;20065;-69
2021/10/25 12:36:24;;;;;;;9.25;5.68;;;;;;;;;;4978117;28;20488;-69
2021/10/25 12:38:51;;;;;;;7.82;5.70;;;;;;;;;;4984215;28;20053;-69
2021/10/25 12:41:18;;;;;;;9.40;6.18;;;;;;;;;;4981138;28;20089;-69
2021/10/25 12:43:49;;;;;;;9.27;5.65;;;;;;;;;;4979606;28;20055;-69
2021/10/25 12:46:21;;;;;;;11.02;5.90;;;;;;;;;;4978612;28;20788;-69
2021/10/25 12:48:51;;;;;;;12.65;6.00;;;;;;;;;;4969445;28;20560;-69
2021/10/25 12:51:19;;;;;;;15.27;6.25;;;;;;;;;;4982139;28;20565;-69
2021/10/25 12:53:46;;;;;;;12.45;6.00;;;;;;;;;;4965659;28;20054;-69
2021/10/25 12:56:13;;;;;;;10.40;5.55;;;;;;;;;;4965908;28;20046;-69
2021/10/25 12:58:40;;;;;;;11.90;6.40;;;;;;;;;;4986529;28;20043;-69
2021/10/25 13:01:10;;;;;;;10.82;6.35;;;;;;;;;;4974910;28;20046;-69
2021/10/25 13:03:37;;;;;;;12.52;6.15;;;;;;;;;;4979108;28;20042;-69
2021/10/25 13:06:08;;;;;;;20.15;14.80;;;;;;;;;;4970710;28;20058;-69
2021/10/25 13:08:35;;;;;;;12.07;6.97;;;;;;;;;;4981796;28;20435;-69
2021/10/25 13:11:02;;;;;;;12.80;5.97;;;;;;;;;;4972889;28;20051;-69
2021/10/25 13:13:35;;;;;;;10.77;6.03;;;;;;;;;;4975793;28;20038;-69
2021/10/25 13:16:05;;;;;;;10.45;5.88;;;;;;;;;;4974935;28;20050;-70
2021/10/25 13:18:31;;;;;;;8.55;5.70;;;;;;;;;;4982041;28;20046;-69
2021/10/25 13:20:58;;;;;;;11.00;6.03;;;;;;;;;;4977906;28;20053;-69
2021/10/25 13:23:24;;;;;;;11.43;6.18;;;;;;;;;;4971752;28;20060;-69
2021/10/25 13:25:51;;;;;;;13.18;6.40;;;;;;;;;;4977597;28;20796;-69
2021/10/25 13:28:18;;;;;;;11.95;6.40;;;;;;;;;;4983655;28;20050;-70
2021/10/25 13:30:44;;;;;;;8.88;5.75;;;;;;;;;;4979963;28;20062;-70
2021/10/25 13:33:11;;;;;;;8.93;5.95;;;;;;;;;;4977554;28;20491;-69
2021/10/25 13:35:37;;;;;;;11.48;5.88;;;;;;;;;;4987072;28;20137;-69
2021/10/25 13:38:05;;;;;;;9.68;6.22;;;;;;;;;;4970953;28;20209;-69
2021/10/25 13:40:32;;;;;;;9.27;5.75;;;;;;;;;;4975699;28;20050;-69
2021/10/25 13:43:01;;;;;;;11.40;6.32;;;;;;;;;;4976258;28;20043;-69
2021/10/25 13:45:28;;;;;;;10.05;6.05;;;;;;;;;;4975451;28;20046;-69
2021/10/25 13:47:55;;;;;;;9.93;6.30;;;;;;;;;;4968605;28;20064;-69
2021/10/25 13:50:23;;;;;;;10.20;6.05;;;;;;;;;;4969435;28;20050;-69
2021/10/25 13:52:50;;;;;;;12.10;6.60;;;;;;;;;;4975647;28;20046;-69
2021/10/25 13:55:16;;;;;;;9.07;5.90;;;;;;;;;;4968345;28;20066;-69
2021/10/25 13:57:44;;;;;;;10.70;6.28;;;;;;;;;;4968280;28;20059;-69
2021/10/25 14:00:12;;;;;;;13.63;6.88;;;;;;;;;;4981939;28;20138;-69
2021/10/25 14:02:42;;;;;;;11.43;6.25;;;;;;;;;;4977246;28;20492;-69
2021/10/25 14:05:11;;;;;;;10.43;6.00;;;;;;;;;;4975039;28;20518;-69
2021/10/25 14:07:38;;;;;;;10.32;5.82;;;;;;;;;;4966071;28;20145;-69
2021/10/25 14:10:10;;;;;;;9.55;5.85;;;;;;;;;;4982387;28;20058;-69
2021/10/25 14:12:37;;;;;;;11.27;6.32;;;;;;;;;;4972320;28;20113;-69
2021/10/25 14:15:29;;;;;;;10.38;5.80;;;;;;;;;;4969219;28;20065;-69
2021/10/25 14:17:57;;;;;;;9.75;6.18;;;;;;;;;;4971694;28;20051;-69
2021/10/25 14:20:26;;;;;;;11.13;7.07;;;;;;;;;;4966590;28;20359;-69
2021/10/25 14:22:55;;;;;;;12.13;5.80;;;;;;;;;;4974540;28;20085;-69
2021/10/25 14:25:21;;;;;;;9.88;6.15;;;;;;;;;;4981322;28;20415;-69
2021/10/25 14:27:49;;;;;;;9.23;6.07;;;;;;;;;;4991451;28;20473;-69
2021/10/25 14:30:16;;;;;;;10.70;6.03;;;;;;;;;;4973991;28;20055;-69
2021/10/25 14:32:43;;;;;;;10.95;5.63;;;;;;;;;;4975396;28;20058;-69
2021/10/25 14:35:10;;;;;;;9.40;5.93;;;;;;;;;;4979574;28;20327;-70
2021/10/25 14:37:55;;;;;;;8.10;6.15;;;;;;;;;;4968699;28;20416;-69
2021/10/25 14:40:26;;;;;;;12.70;5.90;;;;;;;;;;4984995;28;20139;-69
2021/10/25 14:42:56;;;;;;;8.40;5.72;;;;;;;;;;4966061;28;20062;-70
2021/10/25 14:45:28;;;;;;;8.27;5.78;;;;;;;;;;4978789;28;20061;-69
2021/10/25 14:58:27;;;;;;;10.38;5.43;;;;;;;;;;4972462;28;20491;-69
2021/10/25 15:00:54;;;;;;;10.02;5.82;;;;;;;;;;4971910;28;20048;-69
2021/10/25 15:03:22;;;;;;;9.48;5.18;;;;;;;;;;4979833;28;20046;-69
2021/10/25 15:05:56;;;;;;;7.35;5.25;;;;;;;;;;4969017;28;20046;-69
2021/10/25 15:08:23;;;;;;;10.52;6.43;;;;;;;;;;4976002;28;20062;-69
2021/10/25 15:10:50;;;;;;;11.90;5.75;;;;;;;;;;4977776;28;20047;-69
2021/10/25 15:13:17;;;;;;;8.25;5.30;;;;;;;;;;4970914;28;20064;-69
2021/10/25 15:15:43;;;;;;;12.15;6.20;;;;;;;;;;4966319;28;20046;-69
2021/10/25 15:18:10;;;;;;;6.70;4.70;;;;;;;;;;4985467;28;20535;-69
2021/10/25 15:20:36;;;;;;;10.75;5.63;;;;;;;;;;4977352;28;20069;-69
2021/10/25 15:23:04;;;;;;;14.90;6.20;;;;;;;;;;4976444;28;20049;-68
2021/10/25 15:25:34;;;;;;;10.63;5.82;;;;;;;;;;4987645;28;20054;-68
2021/10/25 15:28:01;;;;;;;10.27;6.18;;;;;;;;;;4987049;28;20046;-69
2021/10/25 15:30:27;;;;;;;10.95;5.90;;;;;;;;;;4976993;28;21429;-69
2021/10/25 15:32:54;;;;;;;8.52;5.53;;;;;;;;;;4983719;28;20672;-69
2021/10/25 15:35:20;;;;;;;10.18;6.00;;;;;;;;;;4999400;28;20061;-68
2021/10/25 15:37:46;;;;;;;11.57;6.60;;;;;;;;;;4998932;28;20046;-69
2021/10/25 15:40:13;;;;;;;11.18;6.15;;;;;;;;;;4994445;28;20050;-69
2021/10/25 15:42:40;;;;;;;8.90;6.35;;;;;;;;;;4992157;28;20050;-69
2021/10/25 15:45:07;;;;;;;8.50;5.50;;;;;;;;;;4990141;28;20042;-69
2021/10/25 15:47:34;;;;;;;8.68;6.22;;;;;;;;;;4999551;28;20065;-69
2021/10/25 15:50:00;;;;;;;11.70;6.90;;;;;;;;;;4992433;28;20054;-69
2021/10/25 15:52:27;;;;;;;12.85;7.07;;;;;;;;;;4998031;28;20060;-69
2021/10/25 15:54:56;;;;;;;10.95;5.97;;;;;;;;;;4996912;28;20050;-68
2021/10/25 15:57:23;;;;;;;9.80;6.53;;;;;;;;;;4987380;28;20827;-69
2021/10/25 15:59:51;;;;;;;10.05;6.20;;;;;;;;;;4998449;28;20167;-69
2021/10/25 16:02:17;;;;;;;12.07;6.13;;;;;;;;;;4989739;28;20053;-69
2021/10/25 16:04:44;;;;;;;8.40;5.82;;;;;;;;;;4998551;28;20053;-69
2021/10/25 16:07:12;;;;;;;10.05;5.38;;;;;;;;;;4993666;28;20723;-69
2021/10/25 16:09:39;;;;;;;8.45;5.63;;;;;;;;;;4995912;28;20050;-69
2021/10/25 16:12:06;;;;;;;9.57;6.55;;;;;;;;;;4993957;28;20053;-69
2021/10/25 16:14:32;;;;;;;9.63;6.07;;;;;;;;;;4991425;28;20042;-69
2021/10/25 16:16:59;;;;;;;10.88;6.32;;;;;;;;;;4986160;28;20826;-68
2021/10/25 16:19:25;;;;;;;9.90;5.85;;;;;;;;;;4987615;28;20046;-69
2021/10/25 16:21:52;;;;;;;11.35;5.63;;;;;;;;;;4998825;28;20050;-69
2021/10/25 16:24:18;;;;;;;9.40;5.97;;;;;;;;;;4986217;28;20543;-69
2021/10/25 16:26:47;;;;;;;10.88;6.45;;;;;;;;;;4995712;28;20050;-70
2021/10/25 16:29:13;;;;;;;10.40;6.15;;;;;;;;;;4999879;28;20062;-69
2021/10/25 16:31:40;;;;;;;12.18;6.05;;;;;;;;;;4991771;28;20437;-70
2021/10/25 16:34:06;;;;;;;10.55;5.93;;;;;;;;;;4998533;28;20045;-68
2021/10/25 16:36:34;;;;;;;11.38;5.78;;;;;;;;;;4994393;28;20509;-68
2021/10/25 16:39:00;;;;;;;6.97;5.13;;;;;;;;;;4980082;28;20038;-69